Time;durP1;ratioP1;P1;durP2;ratioP2;P2;SDS_P1;SDS_P2;PMS_P1;PMS_P2;Temp;Humidity;BMP_temperature;BMP_pressure;BME280_temperature;BME280_humidity;BME280_pressure;Samples;Min_cycle;Max_cycle;Signal;HPM_P1;HPM_P2
2022/09/30 00:01:08;;;;;;;0.67;0.67;;;;;;;21.41;58.23;94745.53;5051556;28;20534;-66
2022/09/30 00:03:38;;;;;;;0.77;0.77;;;;;;;21.66;57.92;94752.56;5037615;28;20435;-67
2022/09/30 00:06:06;;;;;;;0.63;0.63;;;;;;;21.77;57.42;94759.06;5043242;28;20510;-71
2022/09/30 00:08:36;;;;;;;0.97;0.63;;;;;;;21.65;57.76;94759.00;5044496;28;20822;-70
2022/09/30 00:11:06;;;;;;;1.37;0.83;;;;;;;21.68;57.29;94777.00;5037767;28;20439;-68
2022/09/30 00:13:35;;;;;;;0.73;0.73;;;;;;;21.56;57.92;94774.28;5037616;28;20436;-65
2022/09/30 00:16:03;;;;;;;0.73;0.73;;;;;;;21.74;57.54;94767.69;5031430;28;20444;-66
2022/09/30 00:18:31;;;;;;;1.70;1.33;;;;;;;21.74;57.29;94765.03;5043340;28;20482;-71
2022/09/30 00:20:58;;;;;;;0.50;0.50;;;;;;;21.20;58.93;94771.44;5051302;28;20886;-61
2022/09/30 00:23:25;;;;;;;0.97;0.97;;;;;;;21.05;59.15;94778.91;5039383;28;20447;-71
2022/09/30 00:26:01;;;;;;;0.63;0.63;;;;;;;21.44;58.11;94769.66;5044856;28;21058;-68
2022/09/30 00:28:29;;;;;;;0.40;0.40;;;;;;;21.68;57.21;94767.09;5031447;28;20445;-70
2022/09/30 00:31:00;;;;;;;0.90;0.43;;;;;;;21.90;56.82;94779.34;5047610;28;20447;-68
2022/09/30 00:33:28;;;;;;;1.13;0.77;;;;;;;21.70;56.73;94769.44;5050597;28;20999;-65
2022/09/30 00:35:55;;;;;;;2.17;1.33;;;;;;;21.27;58.40;94787.69;5050792;28;20470;-70
2022/09/30 00:38:22;;;;;;;0.67;0.67;;;;;;;21.35;58.23;94776.19;5043390;28;20846;-71
2022/09/30 00:40:50;;;;;;;0.20;0.20;;;;;;;21.64;57.30;94770.78;5039161;28;20498;-68
2022/09/30 00:43:20;;;;;;;1.27;1.17;;;;;;;21.26;58.11;94759.50;5042964;28;20462;-72
2022/09/30 00:45:55;;;;;;;0.37;0.37;;;;;;;21.47;57.62;94765.56;5050704;28;20981;-72
2022/09/30 00:48:34;;;;;;;0.40;0.33;;;;;;;21.61;56.67;94763.41;5039240;28;20443;-71
2022/09/30 00:51:02;;;;;;;1.13;0.83;;;;;;;21.70;56.56;94759.56;5040395;28;20443;-70
2022/09/30 00:53:34;;;;;;;1.00;0.97;;;;;;;21.73;56.36;94764.22;5047114;28;20463;-66
2022/09/30 00:56:06;;;;;;;9.97;1.13;;;;;;;21.60;56.74;94756.53;5050615;28;20446;-66
2022/09/30 00:58:42;;;;;;;2.27;1.00;;;;;;;21.51;57.03;94755.81;5035724;28;20455;-66
2022/09/30 01:01:10;;;;;;;1.93;0.87;;;;;;;21.58;56.77;94775.53;5050521;28;20537;-66
2022/09/30 01:03:44;;;;;;;0.87;0.87;;;;;;;21.68;56.75;94766.31;5035986;28;20985;-65
2022/09/30 01:06:11;;;;;;;0.60;0.60;;;;;;;21.36;57.24;94777.75;5050037;28;20454;-68
2022/09/30 01:08:39;;;;;;;1.90;1.07;;;;;;;21.48;57.03;94756.47;5035927;28;20439;-65
2022/09/30 01:11:06;;;;;;;1.33;1.17;;;;;;;21.37;57.16;94756.09;5050304;28;20840;-61
2022/09/30 01:13:38;;;;;;;0.87;0.87;;;;;;;21.13;57.93;94756.72;5050606;28;20505;-66
2022/09/30 01:16:14;;;;;;;7.00;2.20;;;;;;;21.01;58.88;94751.34;5036760;28;20434;-65
2022/09/30 01:19:15;;;;;;;0.53;0.53;;;;;;;21.37;57.82;94750.00;5050765;28;20542;-65
2022/09/30 01:22:02;;;;;;;1.27;1.17;;;;;;;21.45;57.19;94757.13;5047501;28;20449;-65
2022/09/30 01:24:47;;;;;;;2.47;1.20;;;;;;;20.84;58.97;94764.72;5030365;28;20444;-69
2022/09/30 01:27:38;;;;;;;1.50;1.00;;;;;;;21.15;57.98;94765.19;5029580;28;20491;-69
2022/09/30 01:30:13;;;;;;;0.80;0.80;;;;;;;21.21;57.80;94767.66;5039073;28;20487;-68
2022/09/30 01:33:02;;;;;;;1.73;0.93;;;;;;;21.12;58.36;94755.19;5050152;28;20438;-66
2022/09/30 01:35:57;;;;;;;0.73;0.73;;;;;;;21.25;57.72;94769.34;5049983;28;20525;-73
2022/09/30 01:38:35;;;;;;;1.93;0.93;;;;;;;20.78;58.90;94759.91;5049720;28;20439;-70
2022/09/30 01:41:15;;;;;;;0.57;0.57;;;;;;;20.87;58.95;94761.44;5042139;28;20840;-67
2022/09/30 01:44:09;;;;;;;0.50;0.50;;;;;;;21.37;57.18;94772.06;5042980;28;20477;-70
2022/09/30 01:46:37;;;;;;;0.50;0.50;;;;;;;21.21;57.04;94773.78;5040711;28;20454;-73
2022/09/30 01:49:19;;;;;;;0.60;0.60;;;;;;;21.14;57.64;94766.31;5044595;28;20474;-70
2022/09/30 01:52:32;;;;;;;0.50;0.50;;;;;;;21.11;57.87;94758.19;5031633;28;20473;-69
2022/09/30 01:55:16;;;;;;;0.87;0.83;;;;;;;21.21;57.23;94773.78;5046682;28;20487;-71
2022/09/30 01:58:06;;;;;;;1.00;1.00;;;;;;;21.07;57.77;94757.25;5052950;28;20451;-73
2022/09/30 02:00:38;;;;;;;0.73;0.73;;;;;;;21.30;57.29;94771.81;5051826;28;20444;-63
2022/09/30 02:03:17;;;;;;;0.60;0.60;;;;;;;21.12;57.47;94755.19;5041092;28;20442;-65
2022/09/30 02:05:54;;;;;;;1.30;1.23;;;;;;;21.20;56.96;94761.56;5030709;28;20447;-73
2022/09/30 02:08:51;;;;;;;0.47;0.47;;;;;;;21.29;56.69;94767.59;5028361;28;20517;-70
2022/09/30 02:11:31;;;;;;;0.30;0.30;;;;;;;21.28;56.58;94773.25;5028255;28;20448;-67
2022/09/30 02:13:58;;;;;;;0.30;0.30;;;;;;;21.35;56.61;94768.94;5029259;28;20448;-69
2022/09/30 02:16:31;;;;;;;0.10;0.10;;;;;;;20.94;57.68;94775.03;5038267;28;21216;-67
2022/09/30 02:19:22;;;;;;;0.60;0.60;;;;;;;21.08;57.05;94780.91;5049317;28;20443;-67
2022/09/30 02:22:02;;;;;;;1.20;1.20;;;;;;;20.83;57.87;94773.84;5049401;28;20451;-66
2022/09/30 02:24:38;;;;;;;1.17;1.07;;;;;;;21.17;57.24;94778.97;5049405;28;20439;-72
2022/09/30 02:27:13;;;;;;;0.80;0.80;;;;;;;21.17;57.10;94780.09;5049332;28;20543;-65
2022/09/30 02:29:48;;;;;;;0.87;0.87;;;;;;;21.13;57.15;94787.91;5029595;28;20454;-69
2022/09/30 02:32:39;;;;;;;0.43;0.43;;;;;;;21.30;56.69;94797.69;5043957;28;20443;-70
2022/09/30 02:35:10;;;;;;;0.23;0.23;;;;;;;21.23;56.79;94786.75;5041719;28;20457;-65
2022/09/30 02:37:47;;;;;;;0.40;0.40;;;;;;;21.29;56.75;94796.13;5038691;28;20442;-70
2022/09/30 02:40:41;;;;;;;0.77;0.77;;;;;;;21.31;57.08;94784.06;5041930;28;21000;-67
2022/09/30 02:43:09;;;;;;;0.53;0.53;;;;;;;21.21;56.77;94780.97;5043943;28;20502;-71
2022/09/30 02:45:43;;;;;;;0.73;0.73;;;;;;;21.30;56.67;94771.03;5038693;28;20536;-67
2022/09/30 02:48:18;;;;;;;1.00;1.00;;;;;;;21.25;56.73;94773.91;5053166;28;20471;-69
2022/09/30 02:50:44;;;;;;;2.60;1.87;;;;;;;21.13;57.06;94780.72;5035278;28;20443;-69
2022/09/30 02:53:28;;;;;;;2.30;1.27;;;;;;;20.93;58.36;94777.97;5047800;28;20525;-64
2022/09/30 02:56:16;;;;;;;1.50;1.23;;;;;;;21.11;57.65;94784.81;5045379;28;20450;-68
2022/09/30 02:58:44;;;;;;;0.40;0.40;;;;;;;21.06;57.47;94788.44;5056231;28;20442;-63
2022/09/30 03:01:14;;;;;;;0.40;0.40;;;;;;;21.27;57.36;94783.13;5064484;28;20485;-60
2022/09/30 03:03:46;;;;;;;0.97;0.97;;;;;;;21.36;56.79;94791.06;5039172;28;20547;-74
2022/09/30 03:06:14;;;;;;;3.00;1.47;;;;;;;21.17;57.27;94794.97;5053312;28;20455;-65
2022/09/30 03:08:41;;;;;;;0.83;0.83;;;;;;;21.33;56.91;94797.06;5051674;28;20849;-65
2022/09/30 03:11:18;;;;;;;0.80;0.80;;;;;;;21.39;56.60;94796.53;5040777;28;20453;-68
2022/09/30 03:13:51;;;;;;;0.53;0.53;;;;;;;21.39;56.71;94803.72;5052446;28;20538;-71
2022/09/30 03:16:29;;;;;;;0.87;0.87;;;;;;;21.28;56.99;94810.56;5052510;28;20439;-71
2022/09/30 03:19:21;;;;;;;0.90;0.90;;;;;;;21.49;56.33;94803.34;5052377;28;20435;-72
2022/09/30 03:22:05;;;;;;;0.50;0.50;;;;;;;21.30;56.70;94803.00;5041110;28;20474;-70
2022/09/30 03:24:51;;;;;;;0.33;0.33;;;;;;;21.07;57.38;94806.00;5046430;28;20435;-70
2022/09/30 03:27:23;;;;;;;1.60;1.50;;;;;;;21.30;56.78;94803.00;5032336;28;20482;-67
2022/09/30 03:29:56;;;;;;;0.50;0.47;;;;;;;21.17;57.40;94798.75;5046194;28;20442;-62
2022/09/30 03:32:41;;;;;;;0.93;0.83;;;;;;;21.23;56.79;94795.56;5038360;28;20450;-71
2022/09/30 03:35:26;;;;;;;7.00;0.97;;;;;;;21.17;57.13;94800.28;5043066;28;20966;-64
2022/09/30 03:38:32;;;;;;;0.57;0.57;;;;;;;21.08;57.37;94796.91;5056764;28;20447;-73
2022/09/30 03:41:11;;;;;;;1.17;0.57;;;;;;;21.13;57.04;94803.91;5044440;28;20501;-71
2022/09/30 03:44:05;;;;;;;0.50;0.50;;;;;;;20.93;57.39;94805.41;5046429;28;20435;-67
2022/09/30 03:46:40;;;;;;;1.43;0.80;;;;;;;21.07;57.25;94806.00;5041485;28;20525;-63
2022/09/30 03:49:12;;;;;;;0.23;0.23;;;;;;;20.89;57.83;94803.72;5050028;28;20457;-71
2022/09/30 03:51:40;;;;;;;0.67;0.67;;;;;;;20.95;57.23;94813.88;5037750;28;20517;-65
2022/09/30 03:54:10;;;;;;;2.63;1.13;;;;;;;20.90;57.45;94827.38;5051994;28;20486;-64
2022/09/30 03:56:41;;;;;;;0.57;0.57;;;;;;;20.72;58.15;94819.78;5039833;28;20534;-70
2022/09/30 03:59:24;;;;;;;0.60;0.60;;;;;;;20.91;57.76;94812.94;5040961;28;21150;-61
2022/09/30 04:01:52;;;;;;;0.30;0.30;;;;;;;20.97;57.38;94832.97;5035662;28;20444;-67
2022/09/30 04:04:19;;;;;;;0.70;0.70;;;;;;;21.06;57.03;94820.41;5030529;28;20447;-71
2022/09/30 04:06:46;;;;;;;1.20;1.13;;;;;;;21.02;57.16;94830.16;5031563;28;20785;-66
2022/09/30 04:09:13;;;;;;;0.53;0.53;;;;;;;20.98;57.06;94829.19;5030925;28;20452;-64
2022/09/30 04:11:41;;;;;;;2.00;1.80;;;;;;;21.05;56.58;94829.53;5036993;28;20462;-70
2022/09/30 04:14:08;;;;;;;1.90;0.90;;;;;;;20.65;57.62;94814.97;5039563;28;20445;-69
2022/09/30 04:16:35;;;;;;;1.40;1.30;;;;;;;20.81;57.75;94818.66;5049287;28;20533;-72
2022/09/30 04:19:02;;;;;;;0.30;0.30;;;;;;;20.91;57.13;94825.50;5050224;28;20488;-66
2022/09/30 04:21:29;;;;;;;0.73;0.73;;;;;;;20.86;57.19;94837.09;5035429;28;21035;-68
2022/09/30 04:23:56;;;;;;;0.93;0.83;;;;;;;20.85;57.03;94822.22;5036010;28;20445;-62
2022/09/30 04:26:23;;;;;;;0.20;0.20;;;;;;;20.25;59.77;94821.69;5038704;28;20883;-69
2022/09/30 04:28:51;;;;;;;1.03;1.03;;;;;;;20.68;58.59;94818.84;5030977;28;20487;-67
2022/09/30 04:31:19;;;;;;;0.90;0.90;;;;;;;20.19;60.11;94822.94;5033744;28;20439;-66
2022/09/30 04:33:46;;;;;;;0.83;0.83;;;;;;;20.34;59.71;94827.75;5046629;28;20884;-66
2022/09/30 04:36:13;;;;;;;2.20;1.57;;;;;;;20.41;59.70;94838.69;5028309;28;20527;-73
2022/09/30 04:38:40;;;;;;;0.40;0.40;;;;;;;20.39;59.45;94838.22;5028383;28;20983;-72
2022/09/30 04:41:12;;;;;;;0.50;0.50;;;;;;;20.52;58.99;94850.56;5032589;28;20523;-71
2022/09/30 04:43:43;;;;;;;0.50;0.50;;;;;;;20.50;58.82;94838.66;5028125;28;20506;-70
2022/09/30 04:46:11;;;;;;;1.47;1.07;;;;;;;20.30;59.52;94848.13;5029294;28;20439;-69
2022/09/30 04:48:38;;;;;;;0.40;0.40;;;;;;;20.77;57.68;94859.53;5043202;28;20993;-65
2022/09/30 04:51:05;;;;;;;1.07;0.97;;;;;;;20.42;59.28;94856.22;5039206;28;20452;-72
2022/09/30 04:53:33;;;;;;;1.10;1.03;;;;;;;20.78;58.10;94861.13;5044839;28;20474;-67
2022/09/30 04:56:00;;;;;;;1.20;1.00;;;;;;;19.74;61.04;94883.63;5039182;28;20439;-67
2022/09/30 04:58:28;;;;;;;4.27;3.97;;;;;;;20.63;58.92;94870.41;5035954;28;20476;-69
2022/09/30 05:01:04;;;;;;;5.67;3.63;;;;;;;20.74;57.82;94870.84;5041880;28;20454;-67
2022/09/30 05:03:33;;;;;;;4.60;1.70;;;;;;;20.75;58.15;94889.16;5030489;28;20502;-64
2022/09/30 05:06:00;;;;;;;0.20;0.20;;;;;;;21.01;57.56;94889.88;5037658;28;20454;-62
2022/09/30 05:08:27;;;;;;;0.60;0.60;;;;;;;20.88;57.39;94887.38;5037131;28;21250;-66
2022/09/30 05:10:59;;;;;;;2.37;1.63;;;;;;;20.99;57.35;94868.09;5049654;28;21044;-71
2022/09/30 05:13:31;;;;;;;10.50;8.07;;;;;;;20.99;57.80;94864.63;5037531;28;20455;-68
2022/09/30 05:15:59;;;;;;;8.27;4.83;;;;;;;20.94;58.00;94865.59;5048958;28;20513;-74
2022/09/30 05:18:26;;;;;;;2.23;2.10;;;;;;;21.06;57.04;94879.03;5050439;28;20439;-71
2022/09/30 05:20:54;;;;;;;2.57;2.20;;;;;;;20.41;58.21;94888.47;5032116;28;20530;-70
2022/09/30 05:23:21;;;;;;;1.23;1.13;;;;;;;20.74;58.21;94897.47;5029928;28;20444;-68
2022/09/30 05:25:47;;;;;;;2.30;2.07;;;;;;;20.88;57.88;94898.03;5043858;28;20538;-69
2022/09/30 05:28:14;;;;;;;0.60;0.60;;;;;;;20.62;58.42;94900.78;5029781;28;21084;-69
2022/09/30 05:30:42;;;;;;;0.40;0.40;;;;;;;20.74;58.38;94903.59;5043454;28;20431;-71
2022/09/30 05:33:11;;;;;;;0.90;0.83;;;;;;;20.90;57.67;94899.28;5031481;28;20966;-74
2022/09/30 05:35:41;;;;;;;1.27;0.77;;;;;;;20.86;57.96;94894.91;5041436;28;20451;-67
2022/09/30 05:38:09;;;;;;;1.70;0.87;;;;;;;20.82;57.93;94902.75;5045234;28;20485;-66
2022/09/30 05:40:39;;;;;;;0.40;0.40;;;;;;;21.01;57.39;94897.88;5044491;28;20838;-65
2022/09/30 05:43:06;;;;;;;1.10;1.07;;;;;;;21.17;56.70;94909.53;5029690;28;20534;-63
2022/09/30 05:45:33;;;;;;;0.63;0.53;;;;;;;21.19;56.10;94919.88;5031521;28;20490;-67
2022/09/30 05:48:01;;;;;;;3.30;0.93;;;;;;;21.27;55.54;94932.38;5040389;28;21089;-68
2022/09/30 05:50:28;;;;;;;2.17;0.70;;;;;;;21.15;56.21;94930.41;5039315;28;20443;-69
2022/09/30 05:52:56;;;;;;;1.87;1.60;;;;;;;20.76;57.23;94933.34;5042473;28;20493;-67
2022/09/30 05:55:23;;;;;;;3.33;1.30;;;;;;;20.86;57.06;94932.19;5047914;28;20444;-66
2022/09/30 05:57:51;;;;;;;1.10;1.10;;;;;;;20.77;57.13;94934.91;5029385;28;20464;-69
2022/09/30 06:00:19;;;;;;;0.97;0.97;;;;;;;20.70;57.28;94933.81;5029081;28;20535;-70
2022/09/30 06:02:50;;;;;;;0.97;0.93;;;;;;;20.63;58.12;94934.31;5038355;28;21056;-65
2022/09/30 06:05:17;;;;;;;1.10;1.10;;;;;;;20.90;57.51;94944.56;5047853;28;20513;-70
2022/09/30 06:07:44;;;;;;;1.13;1.13;;;;;;;20.85;57.21;94942.09;5042107;28;20496;-69
2022/09/30 06:10:11;;;;;;;0.53;0.53;;;;;;;20.78;57.56;94941.78;5042460;28;20444;-68
2022/09/30 06:12:38;;;;;;;3.80;2.80;;;;;;;20.81;57.90;94943.81;5048726;28;20463;-61
2022/09/30 06:15:06;;;;;;;1.57;1.47;;;;;;;21.02;57.17;94943.94;5068311;28;20961;-60
2022/09/30 06:17:33;;;;;;;10.63;3.30;;;;;;;21.30;56.89;94947.72;5052062;28;20600;-64
2022/09/30 06:20:01;;;;;;;2.53;1.30;;;;;;;20.95;57.63;94954.25;5046942;28;20447;-63
2022/09/30 06:22:28;;;;;;;2.13;1.60;;;;;;;20.88;57.89;94938.00;5055534;28;21224;-65
2022/09/30 06:24:56;;;;;;;0.30;0.30;;;;;;;21.24;57.11;94938.34;5047122;28;21241;-66
2022/09/30 06:27:23;;;;;;;0.70;0.70;;;;;;;20.93;57.60;94943.94;5050583;28;20837;-68
2022/09/30 06:29:50;;;;;;;3.10;0.93;;;;;;;20.98;58.19;94948.31;5047798;28;20455;-66
2022/09/30 06:32:17;;;;;;;1.23;1.03;;;;;;;20.94;58.28;94950.03;5049451;28;20446;-64
2022/09/30 06:34:44;;;;;;;2.70;1.43;;;;;;;21.09;57.70;94974.31;5041926;28;20443;-65
2022/09/30 06:37:12;;;;;;;0.53;0.53;;;;;;;21.23;56.85;94957.31;5055839;28;20431;-72
2022/09/30 06:39:40;;;;;;;1.23;1.13;;;;;;;21.22;57.71;94955.78;5037643;28;20866;-66
2022/09/30 06:42:08;;;;;;;2.07;1.97;;;;;;;21.13;58.39;94947.78;5035566;28;20449;-67
2022/09/30 06:44:35;;;;;;;2.83;2.63;;;;;;;21.53;56.83;94957.00;5044446;28;20907;-67
2022/09/30 06:47:17;;;;;;;0.57;0.57;;;;;;;21.43;56.46;94967.28;5041226;28;20450;-69
2022/09/30 06:49:52;;;;;;;0.60;0.60;;;;;;;21.11;57.72;94971.34;5055439;28;20449;-65
2022/09/30 06:52:19;;;;;;;4.07;2.37;;;;;;;21.06;57.90;94969.63;5035802;28;20439;-63
2022/09/30 06:54:48;;;;;;;1.53;1.43;;;;;;;21.18;57.85;94983.03;5048565;28;20927;-66
2022/09/30 06:57:21;;;;;;;0.77;0.77;;;;;;;21.22;57.74;94985.09;5041353;28;20485;-68
2022/09/30 06:59:48;;;;;;;1.67;1.57;;;;;;;21.36;57.19;94990.97;5043169;28;20503;-73
2022/09/30 07:02:16;;;;;;;2.43;1.73;;;;;;;21.62;56.83;94992.41;5039725;28;20475;-66
2022/09/30 07:04:42;;;;;;;1.20;0.70;;;;;;;21.07;61.04;94999.72;5044693;28;20440;-70
2022/09/30 07:07:10;;;;;;;1.23;1.20;;;;;;;20.73;61.87;95002.44;5049487;28;20436;-69
2022/09/30 07:09:37;;;;;;;0.67;0.67;;;;;;;21.27;60.63;94995.56;5035869;28;20552;-73
2022/09/30 07:12:06;;;;;;;3.87;1.00;;;;;;;21.84;58.04;95007.41;5050364;28;20439;-68
2022/09/30 07:14:34;;;;;;;2.07;1.00;;;;;;;22.03;56.60;95008.53;5048070;28;20984;-63
2022/09/30 07:17:03;;;;;;;2.43;1.50;;;;;;;21.77;56.83;95007.09;5049619;28;20457;-69
2022/09/30 07:19:33;;;;;;;0.73;0.73;;;;;;;21.87;56.53;95012.09;5037856;28;20905;-67
2022/09/30 07:22:26;;;;;;;0.50;0.50;;;;;;;22.19;56.08;95014.06;5044280;28;20443;-61
2022/09/30 07:24:48;;;;;;;1.63;1.53;;;;;;;21.85;56.15;95017.75;5041481;28;20447;-67
2022/09/30 07:27:15;;;;;;;0.50;0.50;;;;;;;22.48;55.42;95008.66;5052696;28;20445;-68
2022/09/30 07:29:43;;;;;;;0.53;0.40;;;;;;;22.29;54.23;95015.56;5045657;28;20642;-65
2022/09/30 07:32:30;;;;;;;1.23;1.17;;;;;;;21.79;56.66;95023.56;5047265;28;20447;-72
2022/09/30 07:34:57;;;;;;;0.63;0.63;;;;;;;21.27;60.59;95022.22;5052530;28;20470;-71
2022/09/30 07:37:25;;;;;;;2.70;2.23;;;;;;;22.32;57.50;95033.59;5039136;28;20468;-65
2022/09/30 07:39:52;;;;;;;1.77;1.37;;;;;;;22.37;55.71;95028.84;5032224;28;20526;-71
2022/09/30 07:42:20;;;;;;;0.73;0.73;;;;;;;22.36;56.63;95032.63;5036716;28;20441;-62
2022/09/30 07:44:50;;;;;;;2.00;1.80;;;;;;;21.27;57.34;95027.56;5041202;28;20472;-62
2022/09/30 07:47:19;;;;;;;0.70;0.70;;;;;;;22.27;55.25;95021.25;5031902;28;20444;-65
2022/09/30 07:49:46;;;;;;;1.07;1.07;;;;;;;22.38;56.70;95027.75;5040880;28;20466;-67
2022/09/30 07:52:13;;;;;;;3.63;1.43;;;;;;;21.80;58.12;95025.16;5037370;28;21077;-68
2022/09/30 07:54:41;;;;;;;2.17;1.97;;;;;;;21.72;59.45;95028.59;5051639;28;20447;-66
2022/09/30 07:57:14;;;;;;;0.70;0.47;;;;;;;22.40;56.70;95019.41;5046955;28;20442;-65
2022/09/30 07:59:41;;;;;;;1.13;0.73;;;;;;;22.00;59.63;95024.41;5042781;28;20475;-68
2022/09/30 08:02:13;;;;;;;4.17;2.07;;;;;;;22.59;57.80;95025.13;5033960;28;20451;-65
2022/09/30 08:04:41;;;;;;;2.50;2.30;;;;;;;22.73;56.10;95026.41;5031590;28;20451;-70
2022/09/30 08:07:11;;;;;;;0.80;0.80;;;;;;;23.19;54.12;95037.91;5045275;28;20664;-74
2022/09/30 08:09:38;;;;;;;1.73;1.63;;;;;;;22.67;55.39;95030.38;5039960;28;21013;-66
2022/09/30 08:12:05;;;;;;;1.70;1.40;;;;;;;23.10;55.12;95041.44;5051222;28;20504;-70
2022/09/30 08:14:32;;;;;;;1.47;1.37;;;;;;;22.97;55.08;95045.16;5043696;28;20197;-68
2022/09/30 08:17:00;;;;;;;0.80;0.80;;;;;;;22.69;54.75;95030.84;5031347;28;20447;-66
2022/09/30 08:19:29;;;;;;;3.77;1.93;;;;;;;23.20;54.33;95044.78;5050966;28;20668;-67
2022/09/30 08:21:56;;;;;;;0.70;0.70;;;;;;;24.26;51.72;95032.97;5051293;28;20307;-70
2022/09/30 08:24:25;;;;;;;1.53;1.43;;;;;;;24.69;50.15;95046.50;5046038;28;20195;-71
2022/09/30 08:26:53;;;;;;;1.90;1.30;;;;;;;24.51;49.62;95051.31;5042344;28;20196;-73
2022/09/30 08:29:20;;;;;;;1.63;1.53;;;;;;;24.69;49.24;95052.59;5050577;28;20240;-71
2022/09/30 08:32:07;;;;;;;0.47;0.47;;;;;;;23.79;51.80;95056.72;5051101;28;20611;-74
2022/09/30 08:34:34;;;;;;;1.57;1.47;;;;;;;24.49;50.37;95050.88;5050780;28;20242;-66
2022/09/30 08:37:03;;;;;;;0.40;0.40;;;;;;;24.83;49.19;95039.66;5040012;28;20258;-73
2022/09/30 08:39:36;;;;;;;1.03;1.00;;;;;;;25.27;48.78;95045.81;5029223;28;20201;-68
2022/09/30 08:42:41;;;;;;;1.03;0.80;;;;;;;25.37;48.63;95047.19;5030823;28;20201;-66
2022/09/30 08:46:04;;;;;;;0.73;0.73;;;;;;;25.19;48.50;95046.72;5042347;28;20699;-70
2022/09/30 08:48:44;;;;;;;0.50;0.50;;;;;;;25.45;47.11;95052.44;5030125;28;20224;-68
2022/09/30 08:51:29;;;;;;;0.80;0.77;;;;;;;25.57;47.00;95054.25;5037713;28;20212;-63
2022/09/30 08:53:59;;;;;;;0.73;0.73;;;;;;;24.79;49.72;95057.53;5044291;28;20196;-62
2022/09/30 08:56:29;;;;;;;2.07;1.33;;;;;;;25.39;48.67;95050.34;5030451;28;20236;-71
2022/09/30 08:59:14;;;;;;;0.53;0.50;;;;;;;25.61;48.69;95068.53;5044677;28;20209;-73
2022/09/30 09:01:48;;;;;;;1.13;0.93;;;;;;;25.99;46.38;95066.00;5043885;28;20196;-70
2022/09/30 09:04:17;;;;;;;1.33;1.23;;;;;;;26.08;46.05;95063.94;5050675;28;20215;-69
2022/09/30 09:06:57;;;;;;;0.23;0.23;;;;;;;25.76;47.86;95073.13;5050431;28;20291;-70
2022/09/30 09:09:57;;;;;;;0.93;0.93;;;;;;;26.38;46.64;95067.72;5050131;28;20223;-71
2022/09/30 09:13:04;;;;;;;0.50;0.50;;;;;;;26.38;47.13;95067.72;5036903;28;20229;-66
2022/09/30 09:15:37;;;;;;;0.93;0.93;;;;;;;26.31;46.87;95072.94;5045530;28;20204;-65
2022/09/30 09:18:24;;;;;;;2.13;0.70;;;;;;;26.85;44.67;95071.06;5041880;28;20201;-67
2022/09/30 09:20:56;;;;;;;1.13;1.13;;;;;;;27.26;43.85;95068.75;5040305;28;20203;-62
2022/09/30 09:23:30;;;;;;;0.93;0.93;;;;;;;26.64;44.48;95067.88;5052036;28;20640;-61
2022/09/30 09:25:57;;;;;;;0.73;0.73;;;;;;;26.61;44.94;95071.28;5043839;28;20193;-66
2022/09/30 09:28:28;;;;;;;1.60;1.50;;;;;;;27.10;44.68;95076.16;5039682;28;20307;-66
2022/09/30 09:30:57;;;;;;;0.60;0.60;;;;;;;27.49;43.87;95083.06;5033277;28;20676;-70
2022/09/30 09:33:29;;;;;;;0.97;0.93;;;;;;;27.41;43.09;95078.69;5038728;28;20612;-67
2022/09/30 09:36:12;;;;;;;4.73;2.10;;;;;;;27.50;42.39;95073.88;5033107;28;20211;-71
2022/09/30 09:39:04;;;;;;;1.00;1.00;;;;;;;27.71;40.60;95079.59;5046858;28;20246;-70
2022/09/30 09:41:45;;;;;;;1.07;1.07;;;;;;;27.34;42.06;95075.84;5029819;28;20282;-66
2022/09/30 09:44:32;;;;;;;0.13;0.13;;;;;;;27.83;40.26;95074.03;5043847;28;20228;-68
2022/09/30 09:47:16;;;;;;;1.07;1.00;;;;;;;28.02;40.66;95068.59;5030269;28;20297;-66
2022/09/30 09:49:54;;;;;;;7.10;2.17;;;;;;;28.20;40.04;95058.88;5038693;28;20267;-62
2022/09/30 09:52:35;;;;;;;1.43;1.33;;;;;;;27.81;41.35;95070.91;5037065;28;20197;-73
2022/09/30 09:55:02;;;;;;;1.80;1.70;;;;;;;28.65;39.20;95057.97;5049421;28;20270;-71
2022/09/30 09:57:32;;;;;;;0.70;0.70;;;;;;;28.65;39.15;95057.97;5042186;28;20635;-66
2022/09/30 10:03:11;;;;;;;6.50;1.30;;;;;;;28.33;39.58;95071.00;5029425;28;20206;-72
2022/09/30 10:05:38;;;;;;;0.90;0.90;;;;;;;28.90;39.38;95065.22;5043165;28;20223;-66
2022/09/30 10:08:08;;;;;;;0.57;0.57;;;;;;;29.07;39.69;95074.69;5029734;28;20623;-68
2022/09/30 10:10:48;;;;;;;1.60;1.50;;;;;;;29.13;39.86;95067.84;5032029;28;20208;-67
2022/09/30 10:13:17;;;;;;;0.53;0.53;;;;;;;28.98;39.21;95057.25;5049602;28;20192;-69
2022/09/30 10:15:45;;;;;;;0.87;0.87;;;;;;;29.37;36.09;95058.47;5035408;28;20224;-64
2022/09/30 10:18:22;;;;;;;4.13;1.53;;;;;;;29.18;37.66;95055.97;5049506;28;20592;-66
2022/09/30 10:20:53;;;;;;;0.53;0.53;;;;;;;29.20;37.82;95057.13;5048813;28;20200;-68
2022/09/30 10:23:39;;;;;;;0.57;0.57;;;;;;;29.59;36.05;95052.13;5049679;28;20200;-61
2022/09/30 10:26:17;;;;;;;1.10;0.90;;;;;;;29.71;37.38;95049.19;5049004;28;20690;-70
2022/09/30 10:28:53;;;;;;;4.23;1.73;;;;;;;29.22;39.11;95054.84;5035399;28;20220;-68
2022/09/30 10:31:20;;;;;;;0.77;0.77;;;;;;;29.65;38.05;95047.97;5042963;28;20664;-71
2022/09/30 10:33:58;;;;;;;0.70;0.70;;;;;;;29.53;37.42;95038.19;5029040;28;20197;-73
2022/09/30 10:36:35;;;;;;;1.03;1.03;;;;;;;29.57;36.78;95039.00;5034486;28;20227;-71
2022/09/30 10:39:23;;;;;;;0.90;0.90;;;;;;;30.05;36.59;95031.72;5036523;28;20205;-76
2022/09/30 10:42:10;;;;;;;0.40;0.40;;;;;;;29.53;36.83;95037.41;5029791;28;20281;-68
2022/09/30 10:45:03;;;;;;;0.27;0.27;;;;;;;30.05;35.82;95039.81;5040006;28;20263;-69
2022/09/30 10:47:30;;;;;;;0.97;0.93;;;;;;;29.92;35.08;95035.88;5042993;28;20197;-71
2022/09/30 10:50:11;;;;;;;0.23;0.23;;;;;;;30.08;35.18;95030.97;5038458;28;20832;-66
2022/09/30 10:52:49;;;;;;;0.77;0.73;;;;;;;30.42;34.78;95040.47;5038892;28;20211;-69
2022/09/30 10:55:18;;;;;;;0.20;0.20;;;;;;;30.14;34.51;95037.56;5050014;28;20220;-69
2022/09/30 10:57:48;;;;;;;0.50;0.50;;;;;;;30.06;33.18;95038.66;5042030;28;20197;-69
2022/09/30 11:00:20;;;;;;;0.33;0.20;;;;;;;29.24;32.32;95039.06;5037774;28;20201;-71
2022/09/30 11:02:58;;;;;;;0.90;0.90;;;;;;;30.13;34.50;95036.00;5043616;28;20306;-73
2022/09/30 11:05:34;;;;;;;0.50;0.50;;;;;;;30.47;32.33;95042.06;5034491;28;20216;-71
2022/09/30 11:08:13;;;;;;;0.67;0.67;;;;;;;30.44;29.66;95038.16;5042534;28;20664;-67
2022/09/30 11:11:04;;;;;;;0.40;0.40;;;;;;;30.18;33.06;95041.09;5031703;28;20613;-67
2022/09/30 11:14:06;;;;;;;0.37;0.37;;;;;;;30.35;31.40;95040.44;5046123;28;20207;-65
2022/09/30 11:17:07;;;;;;;0.20;0.20;;;;;;;29.82;32.97;95044.66;5033240;28;20201;-67
2022/09/30 11:19:47;;;;;;;0.67;0.60;;;;;;;30.48;32.07;95036.25;5032530;28;20246;-65
2022/09/30 11:22:22;;;;;;;1.53;0.50;;;;;;;31.19;29.50;95044.69;5047054;28;20215;-67
2022/09/30 11:24:52;;;;;;;0.30;0.30;;;;;;;30.88;30.46;95045.38;5043747;28;20196;-70
2022/09/30 11:27:33;;;;;;;0.53;0.53;;;;;;;31.26;29.67;95033.91;5046570;28;20298;-69
2022/09/30 11:30:09;;;;;;;1.00;0.93;;;;;;;30.90;30.50;95043.84;5043333;28;20271;-71
2022/09/30 11:32:48;;;;;;;0.27;0.27;;;;;;;31.33;28.54;95039.34;5034305;28;20780;-68
2022/09/30 11:35:46;;;;;;;0.60;0.60;;;;;;;31.31;27.32;95030.81;5052208;28;20219;-66
2022/09/30 11:38:43;;;;;;;0.30;0.30;;;;;;;31.12;27.01;95044.69;5038557;28;20693;-65
2022/09/30 11:41:18;;;;;;;0.50;0.40;;;;;;;31.85;27.36;95033.22;5034995;28;20211;-65
2022/09/30 11:44:18;;;;;;;0.90;0.90;;;;;;;32.27;28.75;95046.00;5031535;28;20232;-73
2022/09/30 11:47:02;;;;;;;0.47;0.47;;;;;;;31.49;26.76;95037.84;5044115;28;20200;-68
2022/09/30 11:50:04;;;;;;;0.33;0.33;;;;;;;32.08;27.81;95047.19;5038574;28;20211;-66
2022/09/30 11:52:34;;;;;;;5.30;1.17;;;;;;;32.05;26.34;95045.25;5040315;28;20203;-64
2022/09/30 11:55:13;;;;;;;0.57;0.57;;;;;;;32.27;27.50;95038.66;5058367;28;20196;-65
2022/09/30 11:58:00;;;;;;;0.30;0.30;;;;;;;32.23;25.04;95042.53;5041065;28;20283;-75
2022/09/30 12:00:48;;;;;;;0.20;0.20;;;;;;;32.39;24.44;95035.53;5051599;28;20223;-66
2022/09/30 12:03:25;;;;;;;0.40;0.40;;;;;;;32.23;25.15;95021.63;5051515;28;20195;-65
2022/09/30 12:06:09;;;;;;;0.50;0.50;;;;;;;32.31;24.50;95042.16;5037053;28;20197;-68
2022/09/30 12:08:56;;;;;;;6.43;0.97;;;;;;;31.88;24.30;95037.88;5050575;28;20191;-73
2022/09/30 12:11:31;;;;;;;0.30;0.30;;;;;;;31.66;24.57;95041.75;5040614;28;20203;-67